createdAt,value
2018-06-17T00:00:48.762Z,11.17
2018-06-17T00:03:17.355Z,10.90
2018-06-17T00:05:45.949Z,11.97
2018-06-17T00:08:14.564Z,11.73
2018-06-17T00:10:43.203Z,10.17
2018-06-17T00:13:11.835Z,11.57
2018-06-17T00:15:40.430Z,11.47
2018-06-17T00:18:09.028Z,10.57
2018-06-17T00:20:37.703Z,12.57
2018-06-17T00:23:06.339Z,14.57
2018-06-17T00:25:34.983Z,12.33
2018-06-17T00:28:03.748Z,12.00
2018-06-17T00:30:32.371Z,12.23
2018-06-17T00:33:00.930Z,10.97
2018-06-17T00:35:29.477Z,12.43
2018-06-17T00:37:58.255Z,10.33
2018-06-17T00:40:27.140Z,10.77
2018-06-17T00:42:56.018Z,12.40
2018-06-17T00:45:24.932Z,12.33
2018-06-17T00:47:53.814Z,11.93
2018-06-17T00:50:22.684Z,13.20
2018-06-17T00:52:51.613Z,15.33
2018-06-17T00:55:20.456Z,16.17
2018-06-17T00:57:51.281Z,13.40
2018-06-17T01:00:21.628Z,12.30
2018-06-17T01:02:50.498Z,12.07
2018-06-17T01:05:19.597Z,13.03
2018-06-17T01:07:48.495Z,11.87
2018-06-17T01:10:17.428Z,13.73
2018-06-17T01:12:46.305Z,12.27
2018-06-17T01:15:15.333Z,13.67
2018-06-17T01:17:44.235Z,15.33
2018-06-17T01:20:13.111Z,10.77
2018-06-17T01:22:41.963Z,12.67
2018-06-17T01:25:10.885Z,10.80
2018-06-17T01:27:39.755Z,14.37
2018-06-17T01:30:08.655Z,16.10
2018-06-17T01:32:37.533Z,13.27
2018-06-17T01:35:06.445Z,12.50
2018-06-17T01:37:35.107Z,14.53
2018-06-17T01:40:03.805Z,14.33
2018-06-17T01:42:32.373Z,12.77
2018-06-17T01:45:00.955Z,11.53
2018-06-17T01:47:29.468Z,15.63
2018-06-17T01:49:58.021Z,13.73
2018-06-17T01:52:26.585Z,15.07
2018-06-17T01:54:55.180Z,13.50
2018-06-17T01:57:23.927Z,12.40
2018-06-17T01:59:52.847Z,12.97
2018-06-17T02:02:21.815Z,16.17
2018-06-17T02:04:56.380Z,14.10
2018-06-17T02:07:31.817Z,15.77
2018-06-17T02:10:05.925Z,13.10
2018-06-17T02:12:34.497Z,14.17
2018-06-17T02:15:03.235Z,12.83
2018-06-17T02:17:31.905Z,13.53
2018-06-17T02:20:00.552Z,14.27
2018-06-17T02:22:29.175Z,15.10
2018-06-17T02:24:57.800Z,11.73
2018-06-17T02:27:26.433Z,15.80
2018-06-17T02:29:55.046Z,12.57
2018-06-17T02:32:23.633Z,13.20
2018-06-17T02:34:52.231Z,16.67
2018-06-17T02:37:21.058Z,14.93
2018-06-17T02:39:50.133Z,14.13
2018-06-17T02:42:19.120Z,14.83
2018-06-17T02:44:52.564Z,15.27
2018-06-17T02:47:27.230Z,17.90
2018-06-17T02:49:59.066Z,14.37
2018-06-17T02:52:33.256Z,21.77
2018-06-17T02:55:01.956Z,16.20
2018-06-17T02:57:30.609Z,16.77
2018-06-17T02:59:59.208Z,13.70
2018-06-17T03:02:27.848Z,12.03
2018-06-17T03:04:56.465Z,12.60
2018-06-17T03:07:25.270Z,12.80
2018-06-17T03:09:54.259Z,13.87
2018-06-17T03:12:23.223Z,12.03
2018-06-17T03:14:52.181Z,13.70
2018-06-17T03:17:21.136Z,16.33
2018-06-17T03:19:50.135Z,12.50
2018-06-17T03:22:19.141Z,14.77
2018-06-17T03:24:53.656Z,13.43
2018-06-17T03:27:28.753Z,12.17
2018-06-17T03:30:02.840Z,13.03
2018-06-17T03:32:37.083Z,10.97
2018-06-17T03:35:11.116Z,12.13
2018-06-17T03:37:40.128Z,12.73
2018-06-17T03:40:09.063Z,14.63
2018-06-17T03:42:38.021Z,13.40
2018-06-17T03:45:06.963Z,15.03
2018-06-17T03:47:35.896Z,14.67
2018-06-17T03:50:04.904Z,16.23
2018-06-17T03:52:33.868Z,16.27
2018-06-17T03:55:02.828Z,15.03
2018-06-17T03:57:31.543Z,16.23
2018-06-17T04:00:00.160Z,14.57
2018-06-17T04:02:29.294Z,13.87
2018-06-17T04:05:03.444Z,13.33
2018-06-17T04:07:32.313Z,12.73
2018-06-17T04:10:01.276Z,14.00
2018-06-17T04:12:30.237Z,13.37
2018-06-17T04:14:59.211Z,10.33
2018-06-17T04:17:27.944Z,8.80
2018-06-17T04:19:56.609Z,9.13
2018-06-17T04:22:25.256Z,8.37
2018-06-17T04:24:53.963Z,10.03
2018-06-17T04:27:22.576Z,10.77
2018-06-17T04:29:51.208Z,8.33
2018-06-17T04:32:19.816Z,8.63
2018-06-17T04:34:48.435Z,9.97
2018-06-17T04:37:17.090Z,8.37
2018-06-17T04:39:45.781Z,12.83
2018-06-17T04:42:14.410Z,8.37
2018-06-17T04:44:43.052Z,11.17
2018-06-17T04:47:11.753Z,10.67
2018-06-17T04:49:40.458Z,10.50
2018-06-17T04:52:09.163Z,7.53
2018-06-17T04:54:37.813Z,14.43
2018-06-17T04:57:06.642Z,7.93
2018-06-17T04:59:35.504Z,8.83
2018-06-17T05:02:04.371Z,9.83
2018-06-17T05:04:33.265Z,10.07
2018-06-17T05:07:02.301Z,6.30
2018-06-17T05:09:30.852Z,8.77
2018-06-17T05:11:59.425Z,10.43
2018-06-17T05:14:28.006Z,8.00
2018-06-17T05:16:56.576Z,11.53
2018-06-17T05:19:25.151Z,9.70
2018-06-17T05:21:53.704Z,10.47
2018-06-17T05:24:22.253Z,9.73
2018-06-17T05:26:51.083Z,12.67
2018-06-17T05:29:20.094Z,11.83
2018-06-17T05:31:49.094Z,10.10
2018-06-17T05:34:18.081Z,8.20
2018-06-17T05:36:47.117Z,11.90
2018-06-17T05:39:16.071Z,8.50
2018-06-17T05:41:45.123Z,8.63
2018-06-17T05:44:14.027Z,9.20
2018-06-17T05:46:43.101Z,9.13
2018-06-17T05:49:12.166Z,11.70
2018-06-17T05:51:41.294Z,10.20
2018-06-17T05:54:10.224Z,10.83
2018-06-17T05:56:38.959Z,15.17
2018-06-17T05:59:07.559Z,12.50
2018-06-17T06:01:36.145Z,13.60
2018-06-17T06:04:04.887Z,10.90
2018-06-17T06:06:33.734Z,12.87
2018-06-17T06:09:03.284Z,9.57
2018-06-17T06:11:32.256Z,10.33
2018-06-17T06:14:01.755Z,9.33
2018-06-17T06:16:30.474Z,10.90
2018-06-17T06:18:59.065Z,8.70
2018-06-17T06:21:27.981Z,7.13
2018-06-17T06:23:56.593Z,8.33
2018-06-17T06:26:25.193Z,7.50
2018-06-17T06:28:54.125Z,8.20
2018-06-17T06:31:23.079Z,8.28
2018-06-17T06:33:52.035Z,6.87
2018-06-17T06:36:20.936Z,7.40
2018-06-17T06:38:49.976Z,7.87
2018-06-17T06:41:18.631Z,8.75
2018-06-17T06:43:47.256Z,6.78
2018-06-17T06:46:16.714Z,6.10
2018-06-17T06:48:45.653Z,8.03
2018-06-17T06:51:14.618Z,8.43
2018-06-17T06:53:43.611Z,7.55
2018-06-17T06:56:12.596Z,6.28
2018-06-17T06:58:41.493Z,6.28
2018-06-17T07:01:10.303Z,8.38
2018-06-17T07:03:55.793Z,9.00
2018-06-17T07:06:41.488Z,7.50
2018-06-17T07:09:30.901Z,7.15
2018-06-17T07:11:59.896Z,8.08
2018-06-17T07:14:29.004Z,6.25
2018-06-17T07:17:14.623Z,10.40
2018-06-17T07:19:43.183Z,5.33
2018-06-17T07:22:11.911Z,5.75
2018-06-17T07:24:40.684Z,7.95
2018-06-17T07:27:26.363Z,8.05
2018-06-17T07:29:55.291Z,6.55
2018-06-17T07:32:24.225Z,6.15
2018-06-17T07:34:53.116Z,8.35
2018-06-17T07:37:22.191Z,7.97
2018-06-17T07:41:05.986Z,8.38
2018-06-17T07:43:35.944Z,8.40
2018-06-17T07:46:05.481Z,7.05
2018-06-17T07:49:49.493Z,5.92
2018-06-17T07:52:36.639Z,10.35
2018-06-17T07:55:05.371Z,6.08
2018-06-17T07:57:34.757Z,6.62
2018-06-17T08:00:03.934Z,6.85
2018-06-17T08:02:32.551Z,7.33
2018-06-17T08:05:04.801Z,6.95
2018-06-17T08:07:33.458Z,5.60
2018-06-17T08:10:02.056Z,5.70
2018-06-17T08:12:30.666Z,5.47
2018-06-17T08:14:59.325Z,6.90
2018-06-17T08:17:27.986Z,5.40
2018-06-17T08:19:56.421Z,6.95
2018-06-17T08:22:25.004Z,7.65
2018-06-17T08:24:53.626Z,6.15
2018-06-17T08:27:22.221Z,6.03
2018-06-17T08:29:50.876Z,6.33
2018-06-17T08:32:19.446Z,6.55
2018-06-17T08:34:50.163Z,7.50
2018-06-17T08:37:18.736Z,6.53
2018-06-17T08:39:47.266Z,5.85
2018-06-17T08:42:15.846Z,5.72
2018-06-17T08:44:44.433Z,6.85
2018-06-17T08:47:14.051Z,8.05
2018-06-17T08:49:42.908Z,5.20
2018-06-17T08:52:11.849Z,6.87
2018-06-17T08:54:40.775Z,6.80
2018-06-17T08:57:09.694Z,5.12
2018-06-17T08:59:38.615Z,6.75
2018-06-17T09:02:07.584Z,7.00
2018-06-17T09:04:36.889Z,5.92
2018-06-17T09:07:05.616Z,10.23
2018-06-17T09:09:34.341Z,6.35
2018-06-17T09:12:02.904Z,9.75
2018-06-17T09:14:31.571Z,6.33
2018-06-17T09:17:00.341Z,4.95
2018-06-17T09:19:28.991Z,7.75
2018-06-17T09:21:57.590Z,5.62
2018-06-17T09:24:26.198Z,5.55
2018-06-17T09:26:54.796Z,6.58
2018-06-17T09:29:23.471Z,5.75
2018-06-17T09:31:52.078Z,5.80
2018-06-17T09:34:20.951Z,6.65
2018-06-17T09:36:49.574Z,5.90
2018-06-17T09:39:18.167Z,5.03
2018-06-17T09:41:46.781Z,5.65
2018-06-17T09:44:15.358Z,4.70
2018-06-17T09:46:44.036Z,4.70
2018-06-17T09:49:12.656Z,5.03
2018-06-17T09:51:41.496Z,8.13
2018-06-17T09:54:10.337Z,5.20
2018-06-17T09:56:39.224Z,5.30
2018-06-17T09:59:08.221Z,5.28
2018-06-17T10:01:36.958Z,5.30
2018-06-17T10:04:05.579Z,6.67
2018-06-17T10:06:34.986Z,6.08
2018-06-17T10:09:06.423Z,4.90
2018-06-17T10:11:35.024Z,5.40
2018-06-17T10:14:03.584Z,5.40
2018-06-17T10:16:32.104Z,6.12
2018-06-17T10:19:00.711Z,4.40
2018-06-17T10:21:29.666Z,5.92
2018-06-17T10:23:58.645Z,4.70
2018-06-17T10:26:27.606Z,4.33
2018-06-17T10:28:56.565Z,6.15
2018-06-17T10:31:26.561Z,6.60
2018-06-17T10:33:55.442Z,4.47
2018-06-17T10:36:24.366Z,4.47
2018-06-17T10:38:53.262Z,7.90
2018-06-17T10:41:22.236Z,4.72
2018-06-17T10:43:50.906Z,4.28
2018-06-17T10:46:19.472Z,5.47
2018-06-17T10:48:48.253Z,4.40
2018-06-17T10:51:16.783Z,4.15
2018-06-17T10:53:45.346Z,4.67
2018-06-17T10:56:13.965Z,4.80
2018-06-17T10:58:42.510Z,4.83
2018-06-17T11:01:11.924Z,5.03
2018-06-17T11:03:40.757Z,6.17
2018-06-17T11:06:09.631Z,5.53
2018-06-17T11:08:38.468Z,6.00
2018-06-17T11:11:07.403Z,5.03
2018-06-17T11:13:36.264Z,5.42
2018-06-17T11:16:05.149Z,4.45
2018-06-17T11:18:33.995Z,4.62
2018-06-17T11:21:05.937Z,4.83
2018-06-17T11:23:35.014Z,4.78
2018-06-17T11:26:03.584Z,4.87
2018-06-17T11:28:32.245Z,5.65
2018-06-17T11:31:01.757Z,5.72
2018-06-17T11:33:30.726Z,4.20
2018-06-17T11:35:59.631Z,4.80
2018-06-17T11:38:28.611Z,4.22
2018-06-17T11:40:58.141Z,5.00
2018-06-17T11:43:27.031Z,4.78
2018-06-17T11:45:55.967Z,4.45
2018-06-17T11:48:24.851Z,4.62
2018-06-17T11:50:53.779Z,6.33
2018-06-17T11:53:22.689Z,5.95
2018-06-17T11:55:51.565Z,5.92
2018-06-17T11:58:20.579Z,4.42
2018-06-17T12:00:49.152Z,5.78
2018-06-17T12:03:17.652Z,5.03
2018-06-17T12:05:46.199Z,3.95
2018-06-17T12:08:15.189Z,4.83
2018-06-17T12:10:43.842Z,4.95
2018-06-17T12:13:12.388Z,4.22
2018-06-17T12:15:41.326Z,4.75
2018-06-17T12:18:10.197Z,3.92
2018-06-17T12:20:39.096Z,5.90
2018-06-17T12:23:07.984Z,4.30
2018-06-17T12:25:36.699Z,3.70
2018-06-17T12:28:05.944Z,4.58
2018-06-17T12:30:34.994Z,4.75
2018-06-17T12:33:03.574Z,4.95
2018-06-17T12:35:32.179Z,3.95
2018-06-17T12:38:00.933Z,5.67
2018-06-17T12:40:29.502Z,4.17
2018-06-17T12:42:58.075Z,3.47
2018-06-17T12:45:26.722Z,4.12
2018-06-17T12:47:55.577Z,3.72
2018-06-17T12:50:24.516Z,4.12
2018-06-17T12:52:53.473Z,4.95
2018-06-17T12:55:22.499Z,3.80
2018-06-17T12:57:51.189Z,4.70
2018-06-17T13:00:19.839Z,5.03
2018-06-17T13:02:48.463Z,3.40
2018-06-17T13:05:17.829Z,4.53
2018-06-17T13:07:46.574Z,3.55
2018-06-17T13:10:15.989Z,3.70
2018-06-17T13:12:44.668Z,4.10
2018-06-17T13:15:13.264Z,3.85
2018-06-17T13:17:42.112Z,3.58
2018-06-17T13:20:11.111Z,4.05
2018-06-17T13:22:40.082Z,3.40
2018-06-17T13:25:08.986Z,5.00
2018-06-17T13:27:37.996Z,3.75
2018-06-17T13:30:06.969Z,3.75
2018-06-17T13:32:35.866Z,3.95
2018-06-17T13:35:05.105Z,3.90
2018-06-17T13:37:34.073Z,4.97
2018-06-17T13:40:02.798Z,4.95
2018-06-17T13:42:31.333Z,4.17
2018-06-17T13:44:59.923Z,4.40
2018-06-17T13:47:28.526Z,4.22
2018-06-17T13:49:57.346Z,5.87
2018-06-17T13:52:26.148Z,8.38
2018-06-17T13:54:54.738Z,4.30
2018-06-17T13:57:23.336Z,5.25
2018-06-17T13:59:52.204Z,5.80
2018-06-17T14:02:21.095Z,3.87
2018-06-17T14:04:50.081Z,5.55
2018-06-17T14:07:19.012Z,3.95
2018-06-17T14:09:47.814Z,3.60
2018-06-17T14:12:16.461Z,5.03
2018-06-17T14:14:45.247Z,4.67
2018-06-17T14:17:14.239Z,4.00
2018-06-17T14:19:42.811Z,6.53
2018-06-17T14:22:11.371Z,4.97
2018-06-17T14:24:39.986Z,4.70
2018-06-17T14:27:08.591Z,6.03
2018-06-17T14:29:37.156Z,4.20
2018-06-17T14:32:05.774Z,4.35
2018-06-17T14:34:34.319Z,5.95
2018-06-17T14:37:02.902Z,3.67
2018-06-17T14:39:31.556Z,4.25
2018-06-17T14:42:06.084Z,4.05
2018-06-17T14:44:40.559Z,4.40
2018-06-17T14:47:16.009Z,4.40
2018-06-17T14:49:50.634Z,5.08
2018-06-17T14:52:25.294Z,5.53
2018-06-17T14:54:56.545Z,3.80
2018-06-17T14:57:25.526Z,3.72
2018-06-17T14:59:54.194Z,3.60
2018-06-17T15:02:22.791Z,4.65
2018-06-17T15:04:51.384Z,5.30
2018-06-17T15:07:19.993Z,4.83
2018-06-17T15:09:48.589Z,3.75
2018-06-17T15:12:17.224Z,5.40
2018-06-17T15:14:45.804Z,5.03
2018-06-17T15:17:14.556Z,5.15
2018-06-17T15:19:43.454Z,3.52
2018-06-17T15:22:12.444Z,3.67
2018-06-17T15:24:41.434Z,5.58
2018-06-17T15:27:10.301Z,3.75
2018-06-17T15:29:39.223Z,4.10
2018-06-17T15:32:13.893Z,4.03
2018-06-17T15:34:48.646Z,5.55
2018-06-17T15:37:23.553Z,5.40
2018-06-17T15:39:53.816Z,5.22
2018-06-17T15:42:23.821Z,4.70
2018-06-17T15:44:52.899Z,4.00
2018-06-17T15:47:22.069Z,4.03
2018-06-17T15:49:52.126Z,5.47
2018-06-17T15:52:21.171Z,6.15
2018-06-17T15:54:50.024Z,4.00
2018-06-17T15:57:18.761Z,4.22
2018-06-17T15:59:47.686Z,3.83
2018-06-17T16:02:16.288Z,5.25
2018-06-17T16:04:44.936Z,4.10
2018-06-17T16:07:13.509Z,5.10
2018-06-17T16:09:42.130Z,4.25
2018-06-17T16:12:16.264Z,4.17
2018-06-17T16:14:50.276Z,6.05
2018-06-17T16:18:25.904Z,4.40
2018-06-17T16:20:58.624Z,13.18
2018-06-17T16:23:28.270Z,5.05
2018-06-17T16:25:57.039Z,5.85
2018-06-17T16:28:26.069Z,4.67
2018-06-17T16:30:54.997Z,4.35
2018-06-17T16:33:23.986Z,4.42
2018-06-17T16:35:52.896Z,5.28
2018-06-17T16:38:22.053Z,4.97
2018-06-17T16:40:51.082Z,7.05
2018-06-17T16:43:19.988Z,5.97
2018-06-17T16:45:49.207Z,4.10
2018-06-17T16:48:17.863Z,4.80
2018-06-17T16:50:51.932Z,4.28
2018-06-17T16:53:26.261Z,4.17
2018-06-17T16:56:00.257Z,7.72
2018-06-17T16:58:35.226Z,4.77
2018-06-17T17:01:03.764Z,4.37
2018-06-17T17:03:32.382Z,5.10
2018-06-17T17:06:01.904Z,4.20
2018-06-17T17:08:30.896Z,5.92
2018-06-17T17:10:59.781Z,7.17
2018-06-17T17:13:28.666Z,5.47
2018-06-17T17:15:57.607Z,4.10
2018-06-17T17:18:26.409Z,6.03
2018-06-17T17:20:55.059Z,5.27
2018-06-17T17:23:23.809Z,4.17
2018-06-17T17:25:52.234Z,4.23
2018-06-17T17:28:20.835Z,4.60
2018-06-17T17:30:50.056Z,6.80
2018-06-17T17:33:24.328Z,4.57
2018-06-17T17:36:04.851Z,4.93
2018-06-17T17:38:39.943Z,5.67
2018-06-17T17:41:08.544Z,5.67
2018-06-17T17:43:37.111Z,5.43
2018-06-17T17:46:12.166Z,6.30
2018-06-17T17:48:41.169Z,6.07
2018-06-17T17:51:10.071Z,5.93
2018-06-17T17:53:38.951Z,4.30
2018-06-17T17:56:07.825Z,6.87
2018-06-17T17:58:36.725Z,6.53
2018-06-17T18:01:05.663Z,6.23
2018-06-17T18:03:34.584Z,6.03
2018-06-17T18:06:03.460Z,4.47
2018-06-17T18:08:32.398Z,6.87
2018-06-17T18:11:01.331Z,5.57
2018-06-17T18:13:30.217Z,6.00
2018-06-17T18:15:59.096Z,10.37
2018-06-17T18:18:27.775Z,6.70
2018-06-17T18:20:56.296Z,5.60
2018-06-17T18:23:24.941Z,5.27
2018-06-17T18:25:59.311Z,6.03
2018-06-17T18:28:33.616Z,6.30
2018-06-17T18:31:03.382Z,4.07
2018-06-17T18:33:37.648Z,4.43
2018-06-17T18:36:10.148Z,5.37
2018-06-17T18:38:40.688Z,4.20
2018-06-17T18:41:10.728Z,4.53
2018-06-17T18:43:40.126Z,4.33
2018-06-17T18:46:10.156Z,8.20
2018-06-17T18:48:38.823Z,6.67
2018-06-17T18:51:07.431Z,8.03
2018-06-17T18:53:35.975Z,4.43
2018-06-17T18:56:04.660Z,5.17
2018-06-17T18:58:33.324Z,8.07
2018-06-17T19:01:01.917Z,6.30
2018-06-17T19:03:30.516Z,4.50
2018-06-17T19:05:59.868Z,7.13
2018-06-17T19:08:34.651Z,5.00
2018-06-17T19:11:08.904Z,4.70
2018-06-17T19:13:43.009Z,5.43
2018-06-17T19:16:17.914Z,6.37
2018-06-17T19:18:46.597Z,6.00
2018-06-17T19:21:15.221Z,5.77
2018-06-17T19:23:43.806Z,6.57
2018-06-17T19:26:12.504Z,5.77
2018-06-17T19:28:41.336Z,5.80
2018-06-17T19:31:10.264Z,9.07
2018-06-17T19:33:39.181Z,6.40
2018-06-17T19:36:08.199Z,7.40
2018-06-17T19:38:36.943Z,6.30
2018-06-17T19:41:05.736Z,7.53
2018-06-17T19:43:34.274Z,4.83
2018-06-17T19:46:02.963Z,5.47
2018-06-17T19:48:31.548Z,6.13
2018-06-17T19:51:05.719Z,7.63
2018-06-17T19:53:39.895Z,6.23
2018-06-17T19:56:14.157Z,7.80
2018-06-17T19:58:48.523Z,6.30
2018-06-17T20:01:17.196Z,9.67
2018-06-17T20:03:45.881Z,7.83
2018-06-17T20:06:14.607Z,9.80
2018-06-17T20:08:43.346Z,6.73
2018-06-17T20:11:12.289Z,8.30
2018-06-17T20:13:41.389Z,8.40
2018-06-17T20:16:10.336Z,11.80
2018-06-17T20:18:39.488Z,9.63
2018-06-17T20:21:08.491Z,9.40
2018-06-17T20:23:37.393Z,9.53
2018-06-17T20:26:06.424Z,6.80
2018-06-17T20:28:35.185Z,12.27
2018-06-17T20:31:05.301Z,12.03
2018-06-17T20:33:39.548Z,8.37
2018-06-17T20:36:13.696Z,7.33
2018-06-17T20:38:50.116Z,7.63
2018-06-17T20:41:24.889Z,8.50
2018-06-17T20:43:54.989Z,6.13
2018-06-17T20:46:23.909Z,8.07
2018-06-17T20:48:52.503Z,6.13
2018-06-17T20:51:21.079Z,7.70
2018-06-17T20:53:49.749Z,6.17
2018-06-17T20:56:18.902Z,8.20
2018-06-17T20:58:47.564Z,7.73
2018-06-17T21:01:16.174Z,7.30
2018-06-17T21:03:44.741Z,6.97
2018-06-17T21:06:13.362Z,6.73
2018-06-17T21:08:42.166Z,8.43
2018-06-17T21:11:11.491Z,9.40
2018-06-17T21:13:40.458Z,8.30
2018-06-17T21:16:09.421Z,7.43
2018-06-17T21:18:44.528Z,9.70
2018-06-17T21:21:19.226Z,8.33
2018-06-17T21:23:53.358Z,8.27
2018-06-17T21:26:27.706Z,8.27
2018-06-17T21:28:56.388Z,8.90
2018-06-17T21:31:25.099Z,7.07
2018-06-17T21:33:53.813Z,12.20
2018-06-17T21:36:22.375Z,8.70
2018-06-17T21:38:51.231Z,8.93
2018-06-17T21:41:20.166Z,9.87
2018-06-17T21:43:49.139Z,9.83
2018-06-17T21:46:18.123Z,7.77
2018-06-17T21:48:47.048Z,9.47
2018-06-17T21:51:15.924Z,7.47
2018-06-17T21:53:44.858Z,8.77
2018-06-17T21:56:13.773Z,9.80
2018-06-17T21:58:48.263Z,11.60
2018-06-17T22:01:18.688Z,8.47
2018-06-17T22:03:47.628Z,9.83
2018-06-17T22:06:16.616Z,11.43
2018-06-17T22:08:51.166Z,9.80
2018-06-17T22:11:25.753Z,7.30
2018-06-17T22:14:00.966Z,8.97
2018-06-17T22:16:35.521Z,8.00
2018-06-17T22:19:04.508Z,8.90
2018-06-17T22:21:33.500Z,8.43
2018-06-17T22:24:02.427Z,7.77
2018-06-17T22:26:31.379Z,6.97
2018-06-17T22:29:00.996Z,14.03
2018-06-17T22:31:29.598Z,12.37
2018-06-17T22:33:58.193Z,8.80
2018-06-17T22:36:26.805Z,10.20
2018-06-17T22:38:55.732Z,9.67
2018-06-17T22:41:24.293Z,9.57
2018-06-17T22:43:52.878Z,7.80
2018-06-17T22:46:21.536Z,13.77
2018-06-17T22:48:50.348Z,10.70
2018-06-17T22:51:19.311Z,11.47
2018-06-17T22:54:04.793Z,9.80
2018-06-17T22:56:39.191Z,7.60
2018-06-17T22:59:13.999Z,9.13
2018-06-17T23:01:48.565Z,10.97
2018-06-17T23:04:23.068Z,9.00
2018-06-17T23:06:57.552Z,10.53
2018-06-17T23:09:33.085Z,8.23
2018-06-17T23:12:01.806Z,8.83
2018-06-17T23:14:30.311Z,10.63
2018-06-17T23:16:58.811Z,8.40
2018-06-17T23:19:27.608Z,7.53
2018-06-17T23:21:56.468Z,10.27
2018-06-17T23:24:25.303Z,8.20
2018-06-17T23:26:54.226Z,7.97
2018-06-17T23:29:22.878Z,11.50
2018-06-17T23:31:51.413Z,9.53
2018-06-17T23:34:19.992Z,10.30
2018-06-17T23:36:48.551Z,10.43
2018-06-17T23:39:17.113Z,8.13
2018-06-17T23:41:45.639Z,10.80
2018-06-17T23:44:14.153Z,11.03
2018-06-17T23:46:48.351Z,13.77
2018-06-17T23:49:22.563Z,7.67
2018-06-17T23:51:57.166Z,8.57
2018-06-17T23:54:31.471Z,9.73
2018-06-17T23:57:00.432Z,7.80
2018-06-17T23:59:29.353Z,9.10
